Time;durP1;ratioP1;P1;durP2;ratioP2;P2;SDS_P1;SDS_P2;PMS_P1;PMS_P2;Temp;Humidity;BMP_temperature;BMP_pressure;BME280_temperature;BME280_humidity;BME280_pressure;Samples;Min_cycle;Max_cycle;Signal;HPM_P1;HPM_P2
2022/09/24 00:00:52;;;;;;;33.67;24.77;;;;;;;;;;5051388;28;20111;-74
2022/09/24 00:03:19;;;;;;;40.97;33.25;;;;;;;;;;5051656;28;20049;-75
2022/09/24 00:05:45;;;;;;;34.78;28.33;;;;;;;;;;5034059;28;20052;-75
2022/09/24 00:08:12;;;;;;;33.72;27.55;;;;;;;;;;5050270;28;20144;-76
2022/09/24 00:10:38;;;;;;;43.40;34.90;;;;;;;;;;5050590;28;20029;-75
2022/09/24 00:13:06;;;;;;;33.33;26.42;;;;;;;;;;5050970;28;20092;-76
2022/09/24 00:15:35;;;;;;;40.47;29.48;;;;;;;;;;5050817;28;20132;-76
2022/09/24 00:18:01;;;;;;;33.15;27.10;;;;;;;;;;5051048;28;20029;-75
2022/09/24 00:20:29;;;;;;;33.03;27.08;;;;;;;;;;5051682;28;20449;-75
2022/09/24 00:22:55;;;;;;;43.13;35.08;;;;;;;;;;5050129;28;20080;-75
2022/09/24 00:28:06;;;;;;;24.60;20.40;;;;;;;;;;5049387;28;20040;-75
2022/09/24 00:30:32;;;;;;;32.10;25.58;;;;;;;;;;5049104;28;20148;-76
2022/09/24 00:32:58;;;;;;;38.30;29.80;;;;;;;;;;5049505;28;20032;-76
2022/09/24 00:35:25;;;;;;;38.05;29.40;;;;;;;;;;5076768;28;20040;-75
2022/09/24 00:37:51;;;;;;;30.05;23.88;;;;;;;;;;5088675;28;20077;-76
2022/09/24 00:40:18;;;;;;;32.95;27.10;;;;;;;;;;5089276;28;20060;-76
2022/09/24 00:42:46;;;;;;;44.08;34.28;;;;;;;;;;5088569;28;20028;-76
2022/09/24 00:45:12;;;;;;;34.22;27.08;;;;;;;;;;5088032;28;20056;-76
2022/09/24 00:47:39;;;;;;;43.15;35.08;;;;;;;;;;5088096;28;20054;-76
2022/09/24 00:50:11;;;;;;;31.08;24.67;;;;;;;;;;5090411;28;20216;-76
2022/09/24 00:52:39;;;;;;;30.23;21.77;;;;;;;;;;5089393;28;20479;-76
2022/09/24 00:55:05;;;;;;;35.40;29.33;;;;;;;;;;5088551;28;20038;-76
2022/09/24 00:57:31;;;;;;;48.38;37.40;;;;;;;;;;5087347;28;20028;-76
2022/09/24 00:59:57;;;;;;;24.17;19.08;;;;;;;;;;5088221;28;20051;-75
2022/09/24 01:02:23;;;;;;;48.03;36.28;;;;;;;;;;5088583;28;20032;-76
2022/09/24 01:04:49;;;;;;;34.75;26.63;;;;;;;;;;5087297;28;20130;-76
2022/09/24 01:07:15;;;;;;;40.35;32.08;;;;;;;;;;5087027;28;20036;-75
2022/09/24 01:09:41;;;;;;;37.08;27.00;;;;;;;;;;5087021;28;20480;-76
2022/09/24 01:12:36;;;;;;;39.58;31.73;;;;;;;;;;5087021;28;20102;-75
2022/09/24 01:15:22;;;;;;;38.15;28.58;;;;;;;;;;5085592;28;20833;-75
2022/09/24 01:17:48;;;;;;;37.17;28.65;;;;;;;;;;5087065;28;20021;-76
2022/09/24 01:20:33;;;;;;;48.58;37.17;;;;;;;;;;5088048;28;20404;-75
2022/09/24 01:22:59;;;;;;;36.60;29.83;;;;;;;;;;5088042;28;20055;-75
2022/09/24 01:25:36;;;;;;;41.30;30.45;;;;;;;;;;5088324;28;20089;-75
2022/09/24 01:28:38;;;;;;;32.20;23.83;;;;;;;;;;5088735;28;20032;-75
2022/09/24 01:31:07;;;;;;;48.22;36.47;;;;;;;;;;5085744;28;20028;-75
2022/09/24 01:33:36;;;;;;;35.45;27.42;;;;;;;;;;5087748;28;20036;-74
2022/09/24 01:36:07;;;;;;;39.15;29.25;;;;;;;;;;5087335;28;20130;-76
2022/09/24 01:38:37;;;;;;;42.25;30.90;;;;;;;;;;5087572;28;20032;-76
2022/09/24 01:41:03;;;;;;;;;;;;;;;;;;5088220;28;20581;-75
2022/09/24 01:43:29;;;;;;;32.05;23.85;;;;;;;;;;5088427;28;19994;-76
2022/09/24 01:45:57;;;;;;;40.58;29.88;;;;;;;;;;5087227;28;20083;-75
2022/09/24 01:48:23;;;;;;;42.38;31.58;;;;;;;;;;5091365;28;20615;-76
2022/09/24 01:50:54;;;;;;;35.78;24.67;;;;;;;;;;5091923;28;20020;-75
2022/09/24 01:53:23;;;;;;;34.60;25.05;;;;;;;;;;5091542;28;20031;-74
2022/09/24 01:55:51;;;;;;;39.95;30.38;;;;;;;;;;5091253;28;20028;-76
2022/09/24 01:58:26;;;;;;;37.05;26.92;;;;;;;;;;5091636;28;20039;-73
2022/09/24 02:00:57;;;;;;;40.92;29.88;;;;;;;;;;5091757;28;20083;-74
2022/09/24 02:03:27;;;;;;;39.55;29.80;;;;;;;;;;5091786;28;20393;-75
2022/09/24 02:06:07;;;;;;;34.22;26.80;;;;;;;;;;5091447;28;20520;-75
2022/09/24 02:08:38;;;;;;;39.10;31.35;;;;;;;;;;5091317;28;20031;-75
2022/09/24 02:11:06;;;;;;;39.20;30.00;;;;;;;;;;5091596;28;20024;-75
2022/09/24 02:13:38;;;;;;;47.92;36.53;;;;;;;;;;5091912;28;20334;-74
2022/09/24 02:16:04;;;;;;;41.10;30.77;;;;;;;;;;5091795;28;20028;-75
2022/09/24 02:18:34;;;;;;;32.85;25.92;;;;;;;;;;5092139;28;20047;-76
2022/09/24 02:21:03;;;;;;;28.55;22.60;;;;;;;;;;5090854;28;20044;-75
2022/09/24 02:23:30;;;;;;;44.22;33.65;;;;;;;;;;5091619;28;20482;-74
2022/09/24 02:25:59;;;;;;;41.03;31.77;;;;;;;;;;5091707;28;20032;-75
2022/09/24 02:28:25;;;;;;;30.90;22.92;;;;;;;;;;5091402;28;20036;-74
2022/09/24 02:30:54;;;;;;;34.28;25.00;;;;;;;;;;5091499;28;20028;-76
2022/09/24 02:36:06;;;;;;;40.30;28.90;;;;;;;;;;5051344;28;20032;-75
2022/09/24 02:38:32;;;;;;;32.30;25.70;;;;;;;;;;5050760;28;20140;-75
2022/09/24 02:40:59;;;;;;;41.47;31.30;;;;;;;;;;5050171;28;20240;-75
2022/09/24 02:43:24;;;;;;;40.53;30.42;;;;;;;;;;5050463;28;20082;-75
2022/09/24 02:45:51;;;;;;;26.52;21.00;;;;;;;;;;5051061;28;20025;-75
2022/09/24 02:48:17;;;;;;;35.67;27.92;;;;;;;;;;5050141;28;20025;-75
2022/09/24 02:50:43;;;;;;;36.35;29.95;;;;;;;;;;5050184;28;20021;-75
2022/09/24 02:53:09;;;;;;;30.63;23.45;;;;;;;;;;5049589;28;20025;-74
2022/09/24 02:55:34;;;;;;;31.17;23.90;;;;;;;;;;5050696;28;20021;-74
2022/09/24 02:58:01;;;;;;;33.65;26.45;;;;;;;;;;5049102;28;20476;-75
2022/09/24 03:00:27;;;;;;;24.30;19.63;;;;;;;;;;5050487;28;20036;-76
2022/09/24 03:02:53;;;;;;;37.30;28.67;;;;;;;;;;5050378;28;20082;-75
2022/09/24 03:05:20;;;;;;;34.35;25.55;;;;;;;;;;5050890;28;20036;-75
2022/09/24 03:07:47;;;;;;;28.13;22.48;;;;;;;;;;5052382;28;20021;-75
2022/09/24 03:10:13;;;;;;;27.08;21.20;;;;;;;;;;5052215;28;20075;-76
2022/09/24 03:12:41;;;;;;;29.33;22.35;;;;;;;;;;5050102;28;20238;-74
2022/09/24 03:15:07;;;;;;;28.52;22.65;;;;;;;;;;5050079;28;20112;-74
2022/09/24 03:17:33;;;;;;;31.88;23.92;;;;;;;;;;5050423;28;20053;-76
2022/09/24 03:19:59;;;;;;;32.22;25.10;;;;;;;;;;5050096;28;20068;-75
2022/09/24 03:22:25;;;;;;;21.60;16.70;;;;;;;;;;5048225;28;20041;-75
2022/09/24 03:24:52;;;;;;;25.30;18.67;;;;;;;;;;5050263;28;20184;-75
2022/09/24 03:27:18;;;;;;;21.58;16.88;;;;;;;;;;5049848;28;20028;-76
2022/09/24 03:32:32;;;;;;;20.27;15.95;;;;;;;;;;5049913;28;20446;-76
2022/09/24 03:34:57;;;;;;;24.77;19.48;;;;;;;;;;5059242;28;20040;-75
2022/09/24 03:37:23;;;;;;;25.38;20.00;;;;;;;;;;5069155;28;20432;-76
2022/09/24 03:39:49;;;;;;;26.00;19.40;;;;;;;;;;5069133;28;20135;-75
2022/09/24 03:42:15;;;;;;;25.98;21.73;;;;;;;;;;5068742;28;20031;-75
2022/09/24 03:44:41;;;;;;;23.40;17.73;;;;;;;;;;5068111;28;20032;-75
2022/09/24 03:47:07;;;;;;;20.70;16.30;;;;;;;;;;5069227;28;20031;-76
2022/09/24 03:49:33;;;;;;;23.67;17.02;;;;;;;;;;5069617;28;20024;-74
2022/09/24 03:51:59;;;;;;;23.83;19.85;;;;;;;;;;5071063;28;20058;-75
2022/09/24 03:54:25;;;;;;;24.67;18.92;;;;;;;;;;5070435;28;20020;-75
2022/09/24 03:56:51;;;;;;;21.30;16.23;;;;;;;;;;5069056;28;20021;-76
2022/09/24 03:59:17;;;;;;;19.67;16.02;;;;;;;;;;5070826;28;20070;-76
2022/09/24 04:01:43;;;;;;;20.60;15.90;;;;;;;;;;5071652;28;20482;-76
2022/09/24 04:04:15;;;;;;;23.38;18.85;;;;;;;;;;5070272;28;20033;-75
2022/09/24 04:06:41;;;;;;;20.27;15.85;;;;;;;;;;5071962;28;20103;-75
2022/09/24 04:09:07;;;;;;;22.58;17.80;;;;;;;;;;5070916;28;20451;-76
2022/09/24 04:11:36;;;;;;;25.35;20.73;;;;;;;;;;5070014;28;20395;-75
2022/09/24 04:14:03;;;;;;;24.85;19.08;;;;;;;;;;5069796;28;20055;-75
2022/09/24 04:16:29;;;;;;;22.67;17.52;;;;;;;;;;5070342;28;20383;-75
2022/09/24 04:18:55;;;;;;;24.50;18.80;;;;;;;;;;5069745;28;20028;-75
2022/09/24 04:21:21;;;;;;;22.23;17.83;;;;;;;;;;5070322;28;20083;-76
2022/09/24 04:23:47;;;;;;;23.45;18.88;;;;;;;;;;5070821;28;20040;-75
2022/09/24 04:26:14;;;;;;;21.58;16.30;;;;;;;;;;5070329;28;20033;-75
2022/09/24 04:28:40;;;;;;;24.05;18.55;;;;;;;;;;5070519;28;20790;-75
2022/09/24 04:31:06;;;;;;;19.10;15.77;;;;;;;;;;5068908;28;20044;-75
2022/09/24 04:33:32;;;;;;;20.25;16.30;;;;;;;;;;5068404;28;20487;-75
2022/09/24 04:35:58;;;;;;;20.15;15.52;;;;;;;;;;5048889;28;20032;-75
2022/09/24 04:38:24;;;;;;;16.85;12.40;;;;;;;;;;5048158;28;20025;-76
2022/09/24 04:40:50;;;;;;;24.92;18.35;;;;;;;;;;5047652;28;20037;-76
2022/09/24 04:43:17;;;;;;;24.02;20.45;;;;;;;;;;5046681;28;20031;-75
2022/09/24 04:45:44;;;;;;;22.92;16.52;;;;;;;;;;5049213;28;20032;-76
2022/09/24 04:48:10;;;;;;;31.00;23.38;;;;;;;;;;5050126;28;20028;-75
2022/09/24 04:50:37;;;;;;;24.33;18.80;;;;;;;;;;5047353;28;20112;-75
2022/09/24 04:53:03;;;;;;;26.45;21.40;;;;;;;;;;5049086;28;20047;-76
2022/09/24 04:55:30;;;;;;;25.02;17.75;;;;;;;;;;5048837;28;20036;-74
2022/09/24 04:57:57;;;;;;;22.27;17.30;;;;;;;;;;5048082;28;20036;-76
2022/09/24 05:00:23;;;;;;;27.00;17.77;;;;;;;;;;5047879;28;20033;-75
2022/09/24 05:02:59;;;;;;;23.58;18.20;;;;;;;;;;5048432;28;20104;-75
2022/09/24 05:05:26;;;;;;;20.27;16.00;;;;;;;;;;5047038;28;20040;-75
2022/09/24 05:07:52;;;;;;;17.33;13.20;;;;;;;;;;5048572;28;20111;-75
2022/09/24 05:10:18;;;;;;;19.95;15.68;;;;;;;;;;5047322;28;20108;-76
2022/09/24 05:12:44;;;;;;;20.13;14.93;;;;;;;;;;5063029;28;20490;-75
2022/09/24 05:15:11;;;;;;;21.65;17.27;;;;;;;;;;5068035;28;20107;-75
2022/09/24 05:17:38;;;;;;;19.73;15.23;;;;;;;;;;5068491;28;20024;-75
2022/09/24 05:20:04;;;;;;;26.33;21.42;;;;;;;;;;5067839;28;20035;-75
2022/09/24 05:22:30;;;;;;;21.55;16.25;;;;;;;;;;5069454;28;20044;-75
2022/09/24 05:24:56;;;;;;;26.70;18.35;;;;;;;;;;5071770;28;20100;-75
2022/09/24 05:27:23;;;;;;;24.65;19.85;;;;;;;;;;5071714;28;20024;-74
2022/09/24 05:29:49;;;;;;;23.90;18.17;;;;;;;;;;5072260;28;20047;-75
2022/09/24 05:32:19;;;;;;;24.98;19.27;;;;;;;;;;5071742;28;20107;-75
2022/09/24 05:34:45;;;;;;;27.52;20.73;;;;;;;;;;5071498;28;20075;-76
2022/09/24 05:37:12;;;;;;;27.42;20.25;;;;;;;;;;5066097;28;20025;-75
2022/09/24 05:39:38;;;;;;;26.55;21.42;;;;;;;;;;5062422;28;20045;-74
2022/09/24 05:42:05;;;;;;;28.52;20.63;;;;;;;;;;5063889;28;20025;-74
2022/09/24 05:44:31;;;;;;;29.02;22.58;;;;;;;;;;5062106;28;20111;-73
2022/09/24 05:46:58;;;;;;;23.58;18.92;;;;;;;;;;5066698;28;20020;-74
2022/09/24 05:49:24;;;;;;;36.35;27.50;;;;;;;;;;5052252;28;20060;-75
2022/09/24 05:51:50;;;;;;;20.92;16.75;;;;;;;;;;5065414;28;20060;-74
2022/09/24 05:54:17;;;;;;;22.45;17.60;;;;;;;;;;5066311;28;20024;-74
2022/09/24 05:56:43;;;;;;;26.02;21.27;;;;;;;;;;5056602;28;20051;-75
2022/09/24 05:59:09;;;;;;;19.27;14.30;;;;;;;;;;5052350;28;20029;-75
2022/09/24 06:01:35;;;;;;;22.33;17.98;;;;;;;;;;5052974;28;20442;-74
2022/09/24 06:04:01;;;;;;;22.00;17.77;;;;;;;;;;5058546;28;20033;-75
2022/09/24 06:06:28;;;;;;;26.25;16.38;;;;;;;;;;5061085;28;20467;-76
2022/09/24 06:08:55;;;;;;;25.33;20.25;;;;;;;;;;5059362;28;20036;-75
2022/09/24 06:11:21;;;;;;;27.48;22.05;;;;;;;;;;5059925;28;20392;-75
2022/09/24 06:13:51;;;;;;;19.63;15.20;;;;;;;;;;5060672;28;20829;-77
2022/09/24 06:16:17;;;;;;;22.55;17.10;;;;;;;;;;5056832;28;20029;-74
2022/09/24 06:18:43;;;;;;;20.73;15.70;;;;;;;;;;5057871;28;20040;-75
2022/09/24 06:21:14;;;;;;;12.18;8.48;;;;;;;;;;5061047;28;20584;-75
2022/09/24 06:23:41;;;;;;;24.85;19.50;;;;;;;;;;5063217;28;20017;-75
2022/09/24 06:26:09;;;;;;;25.13;19.60;;;;;;;;;;5058025;28;20033;-76
2022/09/24 06:28:36;;;;;;;23.92;19.00;;;;;;;;;;5060370;28;20040;-75
2022/09/24 06:31:02;;;;;;;24.45;19.35;;;;;;;;;;5060898;28;20103;-77
2022/09/24 06:33:29;;;;;;;30.88;23.00;;;;;;;;;;5056728;28;20500;-76
2022/09/24 06:35:59;;;;;;;25.85;20.95;;;;;;;;;;5057928;28;20033;-76
2022/09/24 06:38:25;;;;;;;25.45;21.13;;;;;;;;;;5056500;28;20025;-78
2022/09/24 06:40:51;;;;;;;25.38;19.67;;;;;;;;;;5059601;28;20568;-77
2022/09/24 06:43:17;;;;;;;26.17;20.33;;;;;;;;;;5059211;28;20020;-76
2022/09/24 06:45:43;;;;;;;26.35;21.70;;;;;;;;;;5057690;28;20013;-77
2022/09/24 06:48:13;;;;;;;28.60;21.10;;;;;;;;;;5060833;28;20052;-77
2022/09/24 06:50:42;;;;;;;32.67;25.95;;;;;;;;;;5060484;28;20615;-77
2022/09/24 06:53:09;;;;;;;24.43;18.00;;;;;;;;;;5057760;28;20025;-77
2022/09/24 06:55:36;;;;;;;28.15;22.40;;;;;;;;;;5057329;28;20032;-77
2022/09/24 06:58:06;;;;;;;31.70;25.38;;;;;;;;;;5061807;28;20129;-77
2022/09/24 07:00:33;;;;;;;28.83;23.33;;;;;;;;;;5063746;28;20068;-77
2022/09/24 07:02:59;;;;;;;30.73;23.33;;;;;;;;;;5061493;28;20016;-77
2022/09/24 07:05:25;;;;;;;23.73;18.35;;;;;;;;;;5061431;28;20028;-78
2022/09/24 07:07:51;;;;;;;26.85;21.80;;;;;;;;;;5060423;28;20017;-77
2022/09/24 07:10:17;;;;;;;30.20;23.00;;;;;;;;;;5060236;28;20445;-76
2022/09/24 07:12:43;;;;;;;30.33;23.65;;;;;;;;;;5059190;28;20025;-76
2022/09/24 07:15:10;;;;;;;30.77;22.35;;;;;;;;;;5060474;28;20052;-76
2022/09/24 07:17:36;;;;;;;21.75;17.20;;;;;;;;;;5060487;28;20139;-76
2022/09/24 07:20:02;;;;;;;24.75;19.60;;;;;;;;;;5060247;28;20044;-76
2022/09/24 07:22:28;;;;;;;34.13;26.60;;;;;;;;;;5058385;28;20044;-77
2022/09/24 07:24:54;;;;;;;25.42;19.55;;;;;;;;;;5058530;28;20094;-76
2022/09/24 07:27:21;;;;;;;29.50;23.10;;;;;;;;;;5061727;28;20020;-76
2022/09/24 07:29:48;;;;;;;29.55;23.20;;;;;;;;;;5061505;28;20039;-76
2022/09/24 07:32:16;;;;;;;27.75;22.30;;;;;;;;;;5060081;28;20394;-76
2022/09/24 07:34:42;;;;;;;11.18;6.88;;;;;;;;;;5055434;28;20171;-75
2022/09/24 07:37:08;;;;;;;28.40;23.67;;;;;;;;;;5059659;28;20506;-76
2022/09/24 07:39:34;;;;;;;20.88;16.70;;;;;;;;;;5055161;28;20044;-76
2022/09/24 07:42:01;;;;;;;21.40;17.73;;;;;;;;;;5054459;28;20032;-76
2022/09/24 07:44:28;;;;;;;13.60;8.95;;;;;;;;;;5051678;28;20029;-77
2022/09/24 07:46:54;;;;;;;14.27;8.65;;;;;;;;;;5050372;28;20021;-76
2022/09/24 07:49:20;;;;;;;7.97;4.57;;;;;;;;;;5054868;28;20044;-76
2022/09/24 07:51:46;;;;;;;15.50;9.82;;;;;;;;;;5069503;28;20032;-77
2022/09/24 07:54:13;;;;;;;22.15;16.42;;;;;;;;;;5070492;28;20037;-76
2022/09/24 07:56:41;;;;;;;52.13;35.95;;;;;;;;;;5069405;28;20418;-76
2022/09/24 07:59:09;;;;;;;36.88;27.00;;;;;;;;;;5068211;28;20040;-76
2022/09/24 08:01:36;;;;;;;40.47;32.03;;;;;;;;;;5068795;28;20174;-76
2022/09/24 08:04:03;;;;;;;29.30;23.70;;;;;;;;;;5064463;28;20032;-76
2022/09/24 08:06:32;;;;;;;30.17;24.50;;;;;;;;;;5053004;28;20028;-76
2022/09/24 08:08:59;;;;;;;30.25;22.58;;;;;;;;;;5068249;28;20017;-76
2022/09/24 08:11:28;;;;;;;28.98;23.05;;;;;;;;;;5058398;28;20842;-75
2022/09/24 08:13:55;;;;;;;29.23;22.23;;;;;;;;;;5062459;28;20028;-77
2022/09/24 08:16:21;;;;;;;38.60;28.60;;;;;;;;;;5064313;28;20032;-75
2022/09/24 08:18:47;;;;;;;20.70;16.35;;;;;;;;;;5071665;28;20032;-77
2022/09/24 08:21:14;;;;;;;13.57;7.93;;;;;;;;;;5070420;28;20523;-77
2022/09/24 08:23:42;;;;;;;8.85;5.72;;;;;;;;;;5069935;28;20822;-77
2022/09/24 08:26:09;;;;;;;16.02;12.98;;;;;;;;;;5053048;28;20103;-76
2022/09/24 08:28:35;;;;;;;27.30;22.17;;;;;;;;;;5050474;28;20036;-76
2022/09/24 08:31:02;;;;;;;29.88;23.55;;;;;;;;;;5049150;28;20029;-77
2022/09/24 08:33:30;;;;;;;22.45;18.88;;;;;;;;;;5050483;28;20055;-77
2022/09/24 08:35:58;;;;;;;29.65;23.73;;;;;;;;;;5069321;28;20025;-77
2022/09/24 08:38:24;;;;;;;28.50;22.35;;;;;;;;;;5068673;28;20082;-78
2022/09/24 08:40:58;;;;;;;23.50;18.67;;;;;;;;;;5049386;28;20090;-76
2022/09/24 08:43:33;;;;;;;26.65;21.33;;;;;;;;;;5049649;28;20025;-77
2022/09/24 08:48:50;;;;;;;27.40;23.63;;;;;;;;;;5048281;28;20506;-78
2022/09/24 08:51:18;;;;;;;25.42;20.60;;;;;;;;;;5049474;28;20025;-78
2022/09/24 08:53:45;;;;;;;24.77;20.50;;;;;;;;;;5049201;28;20021;-78
2022/09/24 08:56:11;;;;;;;30.60;24.55;;;;;;;;;;5060595;28;20111;-77
2022/09/24 08:58:43;;;;;;;29.50;23.70;;;;;;;;;;5062076;28;20107;-77
2022/09/24 09:01:09;;;;;;;24.85;19.00;;;;;;;;;;5067920;28;20070;-76
2022/09/24 09:03:39;;;;;;;18.80;15.38;;;;;;;;;;5068338;28;20056;-77
2022/09/24 09:06:11;;;;;;;22.75;16.85;;;;;;;;;;5064757;28;20107;-78
2022/09/24 09:08:51;;;;;;;24.98;22.15;;;;;;;;;;5068463;28;20089;-76
2022/09/24 09:11:21;;;;;;;22.13;17.70;;;;;;;;;;5070405;28;20060;-77
2022/09/24 09:13:57;;;;;;;21.08;18.77;;;;;;;;;;5056604;28;20426;-76
2022/09/24 09:16:23;;;;;;;26.88;20.98;;;;;;;;;;5048564;28;20025;-77
2022/09/24 09:18:51;;;;;;;22.45;19.33;;;;;;;;;;5046996;28;20681;-76
2022/09/24 09:21:17;;;;;;;26.45;22.90;;;;;;;;;;5049125;28;20052;-76
2022/09/24 09:23:47;;;;;;;26.15;23.20;;;;;;;;;;5050076;28;20092;-76
2022/09/24 09:26:13;;;;;;;23.08;18.95;;;;;;;;;;5052235;28;20029;-76
2022/09/24 09:28:39;;;;;;;24.33;19.73;;;;;;;;;;5057704;28;20070;-77
2022/09/24 09:31:06;;;;;;;24.17;19.10;;;;;;;;;;5049663;28;20033;-76
2022/09/24 09:33:32;;;;;;;32.15;25.35;;;;;;;;;;5047762;28;20031;-76
2022/09/24 09:35:58;;;;;;;27.63;22.73;;;;;;;;;;5066817;28;20025;-76
2022/09/24 09:38:29;;;;;;;21.13;16.58;;;;;;;;;;5067167;28;20029;-77
2022/09/24 09:41:04;;;;;;;18.45;15.00;;;;;;;;;;5070128;28;20115;-77
2022/09/24 09:43:30;;;;;;;27.27;21.48;;;;;;;;;;5070959;28;20033;-76
2022/09/24 09:45:59;;;;;;;21.98;18.70;;;;;;;;;;5068847;28;20028;-76
2022/09/24 09:48:27;;;;;;;18.27;16.10;;;;;;;;;;5071579;28;20387;-76
2022/09/24 09:50:58;;;;;;;21.45;17.70;;;;;;;;;;5068979;28;20043;-76
2022/09/24 09:53:25;;;;;;;21.55;17.98;;;;;;;;;;5068968;28;20020;-75
2022/09/24 09:56:02;;;;;;;24.13;19.92;;;;;;;;;;5070177;28;20098;-76
2022/09/24 09:58:33;;;;;;;22.83;18.77;;;;;;;;;;5068538;28;20567;-76
2022/09/24 10:01:07;;;;;;;22.65;19.48;;;;;;;;;;5067388;28;20444;-76
2022/09/24 10:03:34;;;;;;;21.90;19.45;;;;;;;;;;5067348;28;20147;-76
2022/09/24 10:06:02;;;;;;;15.02;12.05;;;;;;;;;;5066887;28;20054;-76
2022/09/24 10:08:28;;;;;;;24.08;19.77;;;;;;;;;;5070189;28;20055;-76
2022/09/24 10:11:04;;;;;;;20.75;17.70;;;;;;;;;;5071346;28;20108;-77
2022/09/24 10:13:33;;;;;;;20.95;18.65;;;;;;;;;;5071354;28;20025;-76
2022/09/24 10:16:02;;;;;;;19.50;15.65;;;;;;;;;;5069727;28;20071;-76
2022/09/24 10:18:31;;;;;;;21.63;16.88;;;;;;;;;;5072147;28;20074;-75
2022/09/24 10:20:58;;;;;;;20.48;16.85;;;;;;;;;;5072051;28;20105;-76
2022/09/24 10:23:32;;;;;;;25.27;20.33;;;;;;;;;;5072235;28;20040;-76
2022/09/24 10:26:00;;;;;;;19.20;14.80;;;;;;;;;;5071457;28;20032;-76
2022/09/24 10:31:12;;;;;;;19.30;15.73;;;;;;;;;;5076059;28;20031;-77
2022/09/24 10:33:40;;;;;;;22.63;17.60;;;;;;;;;;5073723;28;20036;-77
2022/09/24 10:36:07;;;;;;;26.17;19.75;;;;;;;;;;5072478;28;20031;-77
2022/09/24 10:38:33;;;;;;;24.13;19.45;;;;;;;;;;5070620;28;20099;-76
2022/09/24 10:41:00;;;;;;;24.42;21.77;;;;;;;;;;5072655;28;20024;-77
2022/09/24 10:43:26;;;;;;;29.65;23.40;;;;;;;;;;5072331;28;20035;-78
2022/09/24 10:46:04;;;;;;;25.00;19.38;;;;;;;;;;5073959;28;20025;-78
2022/09/24 10:48:37;;;;;;;22.98;18.10;;;;;;;;;;5072214;28;20029;-80
2022/09/24 10:51:10;;;;;;;25.10;20.20;;;;;;;;;;5071535;28;20033;-77
2022/09/24 10:53:55;;;;;;;26.40;19.60;;;;;;;;;;5070921;28;20060;-78
2022/09/24 10:56:37;;;;;;;17.63;13.10;;;;;;;;;;5070787;28;20031;-78
2022/09/24 10:59:22;;;;;;;21.35;17.48;;;;;;;;;;5071723;28;20032;-79
2022/09/24 11:01:54;;;;;;;22.65;18.23;;;;;;;;;;5071976;28;20032;-77
2022/09/24 11:04:26;;;;;;;25.25;21.10;;;;;;;;;;5071201;28;20020;-79
2022/09/24 11:06:52;;;;;;;23.52;20.10;;;;;;;;;;5070627;28;20536;-78
2022/09/24 11:09:37;;;;;;;27.15;21.15;;;;;;;;;;5070279;28;20031;-78
2022/09/24 11:12:08;;;;;;;24.60;21.13;;;;;;;;;;5071077;28;20028;-77
2022/09/24 11:15:07;;;;;;;29.38;23.42;;;;;;;;;;5051191;28;20071;-77
2022/09/24 11:17:51;;;;;;;24.60;20.48;;;;;;;;;;5048863;28;20052;-77
2022/09/24 11:20:33;;;;;;;19.08;15.52;;;;;;;;;;5049515;28;20036;-78
2022/09/24 11:22:59;;;;;;;22.42;19.45;;;;;;;;;;5050817;28;20091;-77
2022/09/24 11:25:37;;;;;;;24.88;20.70;;;;;;;;;;5051616;28;20475;-78
2022/09/24 11:28:18;;;;;;;27.27;22.63;;;;;;;;;;5050430;28;20025;-77
2022/09/24 11:30:50;;;;;;;25.13;21.17;;;;;;;;;;5055313;28;20047;-77
2022/09/24 11:33:36;;;;;;;27.42;22.35;;;;;;;;;;5070376;28;20029;-77
2022/09/24 11:36:15;;;;;;;26.73;22.45;;;;;;;;;;5051017;28;20147;-77
2022/09/24 11:39:00;;;;;;;30.77;23.17;;;;;;;;;;5050524;28;20033;-76
2022/09/24 11:41:35;;;;;;;28.75;21.67;;;;;;;;;;5050517;28;20029;-78
2022/09/24 11:44:04;;;;;;;26.23;20.40;;;;;;;;;;5052595;28;20056;-77
2022/09/24 11:46:36;;;;;;;24.30;21.70;;;;;;;;;;5051127;28;20523;-78
2022/09/24 11:49:05;;;;;;;18.45;16.33;;;;;;;;;;5050015;28;20079;-78
2022/09/24 11:51:44;;;;;;;25.58;20.48;;;;;;;;;;5052476;28;20037;-76
2022/09/24 11:54:22;;;;;;;23.73;19.65;;;;;;;;;;5052597;28;20024;-76
2022/09/24 11:56:50;;;;;;;26.13;20.42;;;;;;;;;;5052999;28;20443;-77
2022/09/24 11:59:17;;;;;;;22.23;18.20;;;;;;;;;;5050725;28;20051;-76
2022/09/24 12:01:49;;;;;;;21.45;17.88;;;;;;;;;;5051600;28;20057;-76
2022/09/24 12:04:16;;;;;;;22.77;17.50;;;;;;;;;;5053431;28;20029;-78
2022/09/24 12:06:53;;;;;;;21.33;17.15;;;;;;;;;;5054756;28;20645;-76
2022/09/24 12:09:29;;;;;;;26.52;18.75;;;;;;;;;;5054719;28;20078;-76
2022/09/24 12:12:01;;;;;;;23.67;18.10;;;;;;;;;;5054011;28;20036;-77
2022/09/24 12:14:43;;;;;;;21.83;18.20;;;;;;;;;;5052762;28;20120;-78
2022/09/24 12:17:13;;;;;;;19.30;15.68;;;;;;;;;;5056935;28;20372;-77
2022/09/24 12:19:44;;;;;;;18.38;16.40;;;;;;;;;;5052315;28;20067;-78
2022/09/24 12:22:11;;;;;;;22.70;15.93;;;;;;;;;;5050242;28;20049;-77
2022/09/24 12:24:42;;;;;;;21.55;17.98;;;;;;;;;;5049636;28;20640;-78
2022/09/24 12:27:13;;;;;;;20.55;15.93;;;;;;;;;;5049181;28;20411;-76
2022/09/24 12:32:59;;;;;;;18.90;15.80;;;;;;;;;;5051334;28;20032;-78
2022/09/24 12:35:44;;;;;;;18.15;15.82;;;;;;;;;;5066479;28;20067;-77
2022/09/24 12:38:10;;;;;;;23.58;18.65;;;;;;;;;;5074781;28;20024;-80
2022/09/24 12:40:54;;;;;;;20.00;17.38;;;;;;;;;;5071279;28;20127;-78
2022/09/24 12:43:33;;;;;;;22.40;18.25;;;;;;;;;;5075878;28;20082;-77
2022/09/24 12:46:03;;;;;;;20.95;16.92;;;;;;;;;;5072484;28;20074;-77
2022/09/24 12:48:31;;;;;;;19.80;17.27;;;;;;;;;;5074617;28;20115;-80
2022/09/24 12:51:01;;;;;;;21.30;18.42;;;;;;;;;;5074196;28;20025;-77
2022/09/24 12:53:38;;;;;;;20.58;16.88;;;;;;;;;;5074551;28;20024;-77
2022/09/24 12:56:05;;;;;;;23.60;19.95;;;;;;;;;;5072615;28;20028;-76
2022/09/24 12:58:44;;;;;;;23.02;19.52;;;;;;;;;;5069328;28;20025;-81
2022/09/24 13:01:30;;;;;;;22.33;19.52;;;;;;;;;;5074454;28;20146;-78
2022/09/24 13:04:05;;;;;;;23.50;17.73;;;;;;;;;;5071671;28;20495;-78
2022/09/24 13:06:31;;;;;;;24.15;20.42;;;;;;;;;;5073720;28;20032;-74
2022/09/24 13:08:58;;;;;;;23.75;19.92;;;;;;;;;;5069635;28;20029;-75
2022/09/24 13:11:30;;;;;;;24.15;20.92;;;;;;;;;;5081016;28;20038;-78
2022/09/24 13:14:18;;;;;;;24.08;20.25;;;;;;;;;;5085474;28;20017;-79
2022/09/24 13:16:49;;;;;;;29.98;23.83;;;;;;;;;;5076952;28;20020;-78
2022/09/24 13:19:34;;;;;;;24.83;18.95;;;;;;;;;;5075512;28;20092;-80
2022/09/24 13:22:01;;;;;;;24.73;19.42;;;;;;;;;;5076212;28;20396;-79
2022/09/24 13:24:32;;;;;;;22.80;18.85;;;;;;;;;;5075815;28;20036;-79
2022/09/24 13:27:09;;;;;;;24.13;20.58;;;;;;;;;;5073447;28;20174;-79
2022/09/24 13:29:39;;;;;;;19.42;16.40;;;;;;;;;;5071468;28;20033;-78
2022/09/24 13:32:06;;;;;;;;;;;;;;;;;;5074955;28;20028;-79
2022/09/24 13:34:38;;;;;;;22.95;18.88;;;;;;;;;;5066194;28;19915;-79
2022/09/24 13:37:43;;;;;;;33.60;20.90;;;;;;;;;;5050789;28;20021;-78
2022/09/24 13:40:17;;;;;;;23.85;20.02;;;;;;;;;;5047417;28;20403;-78
2022/09/24 13:43:02;;;;;;;24.58;20.52;;;;;;;;;;5034473;28;20036;-81
2022/09/24 13:45:30;;;;;;;23.50;20.42;;;;;;;;;;5054432;28;20045;-76
2022/09/24 13:48:04;;;;;;;42.35;37.00;;;;;;;;;;5052106;28;20507;-74
2022/09/24 13:50:31;;;;;;;20.40;17.05;;;;;;;;;;5053480;28;20484;-80
2022/09/24 13:53:33;;;;;;;23.48;20.85;;;;;;;;;;5052329;28;20028;-79
2022/09/24 13:55:59;;;;;;;22.98;18.23;;;;;;;;;;5048486;28;20537;-80
2022/09/24 13:58:37;;;;;;;29.15;24.23;;;;;;;;;;5050636;28;20086;-80
2022/09/24 14:01:23;;;;;;;32.25;24.63;;;;;;;;;;5049982;28;20044;-79
2022/09/24 14:03:53;;;;;;;26.60;19.77;;;;;;;;;;5056605;28;20021;-81
2022/09/24 14:06:22;;;;;;;20.42;17.08;;;;;;;;;;5053573;28;20097;-79
2022/09/24 14:08:50;;;;;;;24.60;21.17;;;;;;;;;;5051523;28;20032;-80
2022/09/24 14:11:26;;;;;;;28.27;22.60;;;;;;;;;;5051356;28;20021;-80
2022/09/24 14:13:55;;;;;;;32.47;23.75;;;;;;;;;;5052018;28;20116;-81
2022/09/24 14:16:22;;;;;;;31.10;26.98;;;;;;;;;;5052022;28;20021;-81
2022/09/24 14:18:48;;;;;;;19.55;16.08;;;;;;;;;;5051554;28;20511;-80
2022/09/24 14:21:14;;;;;;;17.90;15.05;;;;;;;;;;5053857;28;20343;-80
2022/09/24 14:23:48;;;;;;;21.17;14.98;;;;;;;;;;5052017;28;20054;-78
2022/09/24 14:26:25;;;;;;;17.98;13.85;;;;;;;;;;5052791;28;20037;-78
2022/09/24 14:28:51;;;;;;;10.60;5.65;;;;;;;;;;5054230;28;20047;-74
2022/09/24 14:31:17;;;;;;;10.75;3.78;;;;;;;;;;5050154;28;20498;-75
2022/09/24 14:33:43;;;;;;;8.00;3.78;;;;;;;;;;5050912;28;20033;-75
2022/09/24 14:36:11;;;;;;;9.18;4.05;;;;;;;;;;5052551;28;20121;-76
2022/09/24 14:38:45;;;;;;;10.32;3.90;;;;;;;;;;5050236;28;20112;-76
2022/09/24 14:41:25;;;;;;;11.50;4.32;;;;;;;;;;5048843;28;20033;-78
2022/09/24 14:43:56;;;;;;;15.98;3.72;;;;;;;;;;5055395;28;20021;-77
2022/09/24 14:46:24;;;;;;;12.10;4.30;;;;;;;;;;5065312;28;20062;-76
2022/09/24 14:48:51;;;;;;;10.85;3.70;;;;;;;;;;5069202;28;20012;-77